Terminal Aerodrome Forecast
Issued by NWS

Home | Current Version | Previous Version | Text Only | Print | Product List | Glossary On
Versions: 1 2 3 4 5 6 7 8 9 10 11 12 13 14 15 16 17
000
FTUS46 KSEW 260500
TAFPAE
TAF
KPAE 260540Z 2606/2706 02003KT P6SM SKC
     FM261000 VRB04KT P6SM SCT015
     FM261800 34006KT P6SM FEW020
     FM262100 32006KT P6SM SKC=

USA.gov is the U.S. government's official web portal to all federal, state and local government web resources and services.